sensor_id;sensor_type;location;lat;lon;timestamp;temperature;humidity
34279;DHT22;20538;51.528;9.942;2022-08-03T00:01:42;18.00;99.90
34279;DHT22;20538;51.528;9.942;2022-08-03T00:04:09;17.90;99.90
34279;DHT22;20538;51.528;9.942;2022-08-03T00:06:36;17.90;99.90
34279;DHT22;20538;51.528;9.942;2022-08-03T00:09:03;17.90;99.90
34279;DHT22;20538;51.528;9.942;2022-08-03T00:11:29;17.90;99.90
34279;DHT22;20538;51.528;9.942;2022-08-03T00:13:55;17.90;99.90
34279;DHT22;20538;51.528;9.942;2022-08-03T00:16:21;17.80;99.90
34279;DHT22;20538;51.528;9.942;2022-08-03T00:18:46;17.80;99.90
34279;DHT22;20538;51.528;9.942;2022-08-03T00:21:12;17.70;99.90
34279;DHT22;20538;51.528;9.942;2022-08-03T00:23:37;17.70;99.90
34279;DHT22;20538;51.528;9.942;2022-08-03T00:26:03;17.70;99.90
34279;DHT22;20538;51.528;9.942;2022-08-03T00:28:29;17.60;99.90
34279;DHT22;20538;51.528;9.942;2022-08-03T00:30:54;17.60;99.90
34279;DHT22;20538;51.528;9.942;2022-08-03T00:33:21;17.60;99.90
34279;DHT22;20538;51.528;9.942;2022-08-03T00:35:47;17.60;99.90
34279;DHT22;20538;51.528;9.942;2022-08-03T00:38:12;17.50;99.90
34279;DHT22;20538;51.528;9.942;2022-08-03T00:40:38;17.50;99.90
34279;DHT22;20538;51.528;9.942;2022-08-03T00:43:05;17.50;99.90
34279;DHT22;20538;51.528;9.942;2022-08-03T00:45:49;17.50;99.90
34279;DHT22;20538;51.528;9.942;2022-08-03T00:48:15;17.50;99.90
34279;DHT22;20538;51.528;9.942;2022-08-03T00:50:42;17.40;99.90
34279;DHT22;20538;51.528;9.942;2022-08-03T00:53:10;17.40;99.90
34279;DHT22;20538;51.528;9.942;2022-08-03T00:55:39;17.40;99.90
34279;DHT22;20538;51.528;9.942;2022-08-03T00:58:05;17.40;99.90
34279;DHT22;20538;51.528;9.942;2022-08-03T01:00:33;17.40;99.90
34279;DHT22;20538;51.528;9.942;2022-08-03T01:03:01;17.40;99.90
34279;DHT22;20538;51.528;9.942;2022-08-03T01:05:27;17.40;99.90
34279;DHT22;20538;51.528;9.942;2022-08-03T01:13:21;17.20;99.90
34279;DHT22;20538;51.528;9.942;2022-08-03T01:15:58;17.20;99.90
34279;DHT22;20538;51.528;9.942;2022-08-03T01:18:37;17.20;99.90
34279;DHT22;20538;51.528;9.942;2022-08-03T01:21:26;17.20;99.90
34279;DHT22;20538;51.528;9.942;2022-08-03T01:26:59;17.10;99.90
34279;DHT22;20538;51.528;9.942;2022-08-03T01:32:07;17.10;99.90
34279;DHT22;20538;51.528;9.942;2022-08-03T01:34:40;17.10;99.90
34279;DHT22;20538;51.528;9.942;2022-08-03T01:37:08;17.10;99.90
34279;DHT22;20538;51.528;9.942;2022-08-03T01:39:36;17.10;99.90
34279;DHT22;20538;51.528;9.942;2022-08-03T01:42:05;17.00;99.90
34279;DHT22;20538;51.528;9.942;2022-08-03T01:44:39;17.00;99.90
34279;DHT22;20538;51.528;9.942;2022-08-03T01:47:05;17.00;99.90
34279;DHT22;20538;51.528;9.942;2022-08-03T01:49:36;17.00;99.90
34279;DHT22;20538;51.528;9.942;2022-08-03T01:52:04;17.00;99.90
34279;DHT22;20538;51.528;9.942;2022-08-03T01:54:35;16.90;99.90
34279;DHT22;20538;51.528;9.942;2022-08-03T01:57:01;16.90;99.90
34279;DHT22;20538;51.528;9.942;2022-08-03T01:59:28;16.80;99.90
34279;DHT22;20538;51.528;9.942;2022-08-03T02:01:56;16.80;99.90
34279;DHT22;20538;51.528;9.942;2022-08-03T02:04:23;16.70;99.90
34279;DHT22;20538;51.528;9.942;2022-08-03T02:06:51;16.80;99.90
34279;DHT22;20538;51.528;9.942;2022-08-03T02:09:20;16.80;99.90
34279;DHT22;20538;51.528;9.942;2022-08-03T02:11:46;16.70;99.90
34279;DHT22;20538;51.528;9.942;2022-08-03T02:14:14;16.70;99.90
34279;DHT22;20538;51.528;9.942;2022-08-03T02:16:41;16.70;99.90
34279;DHT22;20538;51.528;9.942;2022-08-03T02:19:08;16.60;99.90
34279;DHT22;20538;51.528;9.942;2022-08-03T02:21:36;16.50;99.90
34279;DHT22;20538;51.528;9.942;2022-08-03T02:24:03;16.50;99.90
34279;DHT22;20538;51.528;9.942;2022-08-03T02:26:30;16.50;99.90
34279;DHT22;20538;51.528;9.942;2022-08-03T02:29:01;16.60;99.90
34279;DHT22;20538;51.528;9.942;2022-08-03T02:31:30;16.60;99.90
34279;DHT22;20538;51.528;9.942;2022-08-03T02:34:01;16.50;99.90
34279;DHT22;20538;51.528;9.942;2022-08-03T02:36:30;16.50;99.90
34279;DHT22;20538;51.528;9.942;2022-08-03T02:38:59;16.50;99.90
34279;DHT22;20538;51.528;9.942;2022-08-03T02:41:31;16.60;99.90
34279;DHT22;20538;51.528;9.942;2022-08-03T02:44:02;16.50;99.90
34279;DHT22;20538;51.528;9.942;2022-08-03T02:46:33;16.50;99.90
34279;DHT22;20538;51.528;9.942;2022-08-03T02:49:01;16.50;99.90
34279;DHT22;20538;51.528;9.942;2022-08-03T02:51:31;16.50;99.90
34279;DHT22;20538;51.528;9.942;2022-08-03T02:53:59;16.50;99.90
34279;DHT22;20538;51.528;9.942;2022-08-03T02:56:26;16.50;99.90
34279;DHT22;20538;51.528;9.942;2022-08-03T02:58:53;16.40;99.90
34279;DHT22;20538;51.528;9.942;2022-08-03T03:01:21;16.40;99.90
34279;DHT22;20538;51.528;9.942;2022-08-03T03:03:49;16.40;99.90
34279;DHT22;20538;51.528;9.942;2022-08-03T03:06:16;16.40;99.90
34279;DHT22;20538;51.528;9.942;2022-08-03T03:08:44;16.40;99.90
34279;DHT22;20538;51.528;9.942;2022-08-03T03:11:12;16.40;99.90
34279;DHT22;20538;51.528;9.942;2022-08-03T03:13:38;16.30;99.90
34279;DHT22;20538;51.528;9.942;2022-08-03T03:16:06;16.40;99.90
34279;DHT22;20538;51.528;9.942;2022-08-03T03:18:33;16.40;99.90
34279;DHT22;20538;51.528;9.942;2022-08-03T03:21:01;16.50;99.90
34279;DHT22;20538;51.528;9.942;2022-08-03T03:23:27;16.40;99.90
34279;DHT22;20538;51.528;9.942;2022-08-03T03:25:55;16.40;99.90
34279;DHT22;20538;51.528;9.942;2022-08-03T03:28:23;16.40;99.90
34279;DHT22;20538;51.528;9.942;2022-08-03T03:30:49;16.30;99.90
34279;DHT22;20538;51.528;9.942;2022-08-03T03:33:16;16.30;99.90
34279;DHT22;20538;51.528;9.942;2022-08-03T03:35:42;16.30;99.90
34279;DHT22;20538;51.528;9.942;2022-08-03T03:38:10;16.30;99.90
34279;DHT22;20538;51.528;9.942;2022-08-03T03:40:39;16.30;99.90
34279;DHT22;20538;51.528;9.942;2022-08-03T03:43:09;16.20;99.90
34279;DHT22;20538;51.528;9.942;2022-08-03T03:45:35;16.20;99.90
34279;DHT22;20538;51.528;9.942;2022-08-03T03:48:03;16.20;99.90
34279;DHT22;20538;51.528;9.942;2022-08-03T03:50:30;16.20;99.90
34279;DHT22;20538;51.528;9.942;2022-08-03T03:52:56;16.20;99.90
34279;DHT22;20538;51.528;9.942;2022-08-03T03:55:22;16.10;99.90
34279;DHT22;20538;51.528;9.942;2022-08-03T03:57:48;16.10;99.90
34279;DHT22;20538;51.528;9.942;2022-08-03T04:00:15;16.20;99.90
34279;DHT22;20538;51.528;9.942;2022-08-03T04:02:42;16.10;99.90
34279;DHT22;20538;51.528;9.942;2022-08-03T04:05:08;16.10;99.90
34279;DHT22;20538;51.528;9.942;2022-08-03T04:08:19;16.10;99.90
34279;DHT22;20538;51.528;9.942;2022-08-03T04:11:21;16.10;99.90
34279;DHT22;20538;51.528;9.942;2022-08-03T04:13:54;16.10;99.90
34279;DHT22;20538;51.528;9.942;2022-08-03T04:16:25;16.10;99.90
34279;DHT22;20538;51.528;9.942;2022-08-03T04:18:56;16.10;99.90
34279;DHT22;20538;51.528;9.942;2022-08-03T04:21:24;16.10;99.90
34279;DHT22;20538;51.528;9.942;2022-08-03T04:23:52;16.10;99.90
34279;DHT22;20538;51.528;9.942;2022-08-03T04:26:21;16.10;99.90
34279;DHT22;20538;51.528;9.942;2022-08-03T04:28:51;16.20;99.90
34279;DHT22;20538;51.528;9.942;2022-08-03T04:31:21;16.40;99.90
34279;DHT22;20538;51.528;9.942;2022-08-03T04:33:48;16.70;99.90
34279;DHT22;20538;51.528;9.942;2022-08-03T04:36:16;16.80;99.90
34279;DHT22;20538;51.528;9.942;2022-08-03T04:39:05;16.90;99.90
34279;DHT22;20538;51.528;9.942;2022-08-03T04:41:33;17.10;99.90
34279;DHT22;20538;51.528;9.942;2022-08-03T04:44:01;17.30;99.90
34279;DHT22;20538;51.528;9.942;2022-08-03T04:46:31;17.30;99.90
34279;DHT22;20538;51.528;9.942;2022-08-03T04:48:59;17.50;99.90
34279;DHT22;20538;51.528;9.942;2022-08-03T04:51:25;18.40;99.90
34279;DHT22;20538;51.528;9.942;2022-08-03T04:53:51;18.80;99.90
34279;DHT22;20538;51.528;9.942;2022-08-03T04:56:17;19.10;99.90
34279;DHT22;20538;51.528;9.942;2022-08-03T04:58:43;19.80;99.90
34279;DHT22;20538;51.528;9.942;2022-08-03T05:01:09;20.40;99.90
34279;DHT22;20538;51.528;9.942;2022-08-03T05:03:35;21.10;99.90
34279;DHT22;20538;51.528;9.942;2022-08-03T05:06:00;21.80;99.90
34279;DHT22;20538;51.528;9.942;2022-08-03T05:08:26;22.40;99.90
34279;DHT22;20538;51.528;9.942;2022-08-03T05:10:52;22.80;99.90
34279;DHT22;20538;51.528;9.942;2022-08-03T05:13:17;23.10;99.90
34279;DHT22;20538;51.528;9.942;2022-08-03T05:15:43;23.20;99.90
34279;DHT22;20538;51.528;9.942;2022-08-03T05:18:09;22.60;99.90
34279;DHT22;20538;51.528;9.942;2022-08-03T05:20:35;22.20;99.90
34279;DHT22;20538;51.528;9.942;2022-08-03T05:23:00;22.10;99.90
34279;DHT22;20538;51.528;9.942;2022-08-03T05:25:28;22.10;99.90
34279;DHT22;20538;51.528;9.942;2022-08-03T05:27:54;22.00;99.90
34279;DHT22;20538;51.528;9.942;2022-08-03T05:30:20;22.70;99.90
34279;DHT22;20538;51.528;9.942;2022-08-03T05:32:46;22.40;99.90
34279;DHT22;20538;51.528;9.942;2022-08-03T05:35:12;22.80;99.90
34279;DHT22;20538;51.528;9.942;2022-08-03T05:37:38;23.30;99.90
34279;DHT22;20538;51.528;9.942;2022-08-03T05:40:04;23.60;99.90
34279;DHT22;20538;51.528;9.942;2022-08-03T05:42:30;23.60;99.90
34279;DHT22;20538;51.528;9.942;2022-08-03T05:44:55;24.00;99.90
34279;DHT22;20538;51.528;9.942;2022-08-03T05:47:21;24.10;99.90
34279;DHT22;20538;51.528;9.942;2022-08-03T05:49:47;24.50;99.90
34279;DHT22;20538;51.528;9.942;2022-08-03T05:52:12;24.60;99.90
34279;DHT22;20538;51.528;9.942;2022-08-03T05:54:38;23.60;99.90
34279;DHT22;20538;51.528;9.942;2022-08-03T05:57:04;22.70;99.90
34279;DHT22;20538;51.528;9.942;2022-08-03T05:59:29;22.20;99.90
34279;DHT22;20538;51.528;9.942;2022-08-03T06:01:55;21.90;99.90
34279;DHT22;20538;51.528;9.942;2022-08-03T06:04:21;21.60;99.90
34279;DHT22;20538;51.528;9.942;2022-08-03T06:06:46;21.40;99.90
34279;DHT22;20538;51.528;9.942;2022-08-03T06:09:13;21.20;99.90
34279;DHT22;20538;51.528;9.942;2022-08-03T06:11:39;21.10;99.90
34279;DHT22;20538;51.528;9.942;2022-08-03T06:14:06;21.10;99.90
34279;DHT22;20538;51.528;9.942;2022-08-03T06:16:32;20.90;99.90
34279;DHT22;20538;51.528;9.942;2022-08-03T06:18:58;20.80;99.90
34279;DHT22;20538;51.528;9.942;2022-08-03T06:21:23;20.70;99.90
34279;DHT22;20538;51.528;9.942;2022-08-03T06:23:49;20.60;99.90
34279;DHT22;20538;51.528;9.942;2022-08-03T06:26:15;20.50;99.90
34279;DHT22;20538;51.528;9.942;2022-08-03T06:28:40;20.60;99.90
34279;DHT22;20538;51.528;9.942;2022-08-03T06:31:08;20.60;99.90
34279;DHT22;20538;51.528;9.942;2022-08-03T06:33:34;20.70;99.90
34279;DHT22;20538;51.528;9.942;2022-08-03T06:35:59;20.80;99.90
34279;DHT22;20538;51.528;9.942;2022-08-03T06:38:25;20.90;99.90
34279;DHT22;20538;51.528;9.942;2022-08-03T06:40:51;21.20;99.90
34279;DHT22;20538;51.528;9.942;2022-08-03T06:43:16;21.30;99.90
34279;DHT22;20538;51.528;9.942;2022-08-03T06:45:42;21.60;99.90
34279;DHT22;20538;51.528;9.942;2022-08-03T06:48:09;21.70;99.90
34279;DHT22;20538;51.528;9.942;2022-08-03T06:50:37;21.80;99.90
34279;DHT22;20538;51.528;9.942;2022-08-03T06:53:03;22.00;99.90
34279;DHT22;20538;51.528;9.942;2022-08-03T06:55:29;22.00;99.90
34279;DHT22;20538;51.528;9.942;2022-08-03T06:57:55;22.10;99.90
34279;DHT22;20538;51.528;9.942;2022-08-03T07:00:21;22.20;99.90
34279;DHT22;20538;51.528;9.942;2022-08-03T07:02:48;22.40;99.90
34279;DHT22;20538;51.528;9.942;2022-08-03T07:05:13;22.60;99.90
34279;DHT22;20538;51.528;9.942;2022-08-03T07:07:39;22.70;99.90
34279;DHT22;20538;51.528;9.942;2022-08-03T07:10:06;22.70;99.90
34279;DHT22;20538;51.528;9.942;2022-08-03T07:12:33;22.90;99.90
34279;DHT22;20538;51.528;9.942;2022-08-03T07:14:59;23.10;99.90
34279;DHT22;20538;51.528;9.942;2022-08-03T07:17:25;23.20;99.90
34279;DHT22;20538;51.528;9.942;2022-08-03T07:19:51;23.40;99.90
34279;DHT22;20538;51.528;9.942;2022-08-03T07:22:17;23.40;99.90
34279;DHT22;20538;51.528;9.942;2022-08-03T07:24:42;23.10;99.90
34279;DHT22;20538;51.528;9.942;2022-08-03T07:27:09;23.30;99.90
34279;DHT22;20538;51.528;9.942;2022-08-03T07:29:35;23.70;99.90
34279;DHT22;20538;51.528;9.942;2022-08-03T07:32:02;23.90;99.90
34279;DHT22;20538;51.528;9.942;2022-08-03T07:34:28;24.00;99.90
34279;DHT22;20538;51.528;9.942;2022-08-03T07:36:54;24.00;99.90
34279;DHT22;20538;51.528;9.942;2022-08-03T07:39:19;24.20;99.90
34279;DHT22;20538;51.528;9.942;2022-08-03T07:41:45;24.30;99.90
34279;DHT22;20538;51.528;9.942;2022-08-03T07:44:12;24.40;99.90
34279;DHT22;20538;51.528;9.942;2022-08-03T07:46:38;24.60;99.90
34279;DHT22;20538;51.528;9.942;2022-08-03T07:49:04;24.70;99.90
34279;DHT22;20538;51.528;9.942;2022-08-03T07:51:29;24.80;99.90
34279;DHT22;20538;51.528;9.942;2022-08-03T07:53:55;24.80;99.90
34279;DHT22;20538;51.528;9.942;2022-08-03T07:56:22;25.00;99.90
34279;DHT22;20538;51.528;9.942;2022-08-03T07:58:50;25.00;99.90
34279;DHT22;20538;51.528;9.942;2022-08-03T08:01:16;25.20;99.90
34279;DHT22;20538;51.528;9.942;2022-08-03T08:03:46;25.20;99.90
34279;DHT22;20538;51.528;9.942;2022-08-03T08:06:12;25.20;99.90
34279;DHT22;20538;51.528;9.942;2022-08-03T08:08:39;25.40;99.90
34279;DHT22;20538;51.528;9.942;2022-08-03T08:11:05;25.50;99.90
34279;DHT22;20538;51.528;9.942;2022-08-03T08:13:31;25.50;99.90
34279;DHT22;20538;51.528;9.942;2022-08-03T08:15:56;25.70;99.90
34279;DHT22;20538;51.528;9.942;2022-08-03T08:18:22;25.90;99.90
34279;DHT22;20538;51.528;9.942;2022-08-03T08:20:54;25.90;99.90
34279;DHT22;20538;51.528;9.942;2022-08-03T08:23:20;26.00;99.90
34279;DHT22;20538;51.528;9.942;2022-08-03T08:25:49;26.00;99.90
34279;DHT22;20538;51.528;9.942;2022-08-03T08:28:19;26.30;99.90
34279;DHT22;20538;51.528;9.942;2022-08-03T08:30:45;26.40;99.90
34279;DHT22;20538;51.528;9.942;2022-08-03T08:33:11;26.40;99.90
34279;DHT22;20538;51.528;9.942;2022-08-03T08:35:37;26.30;99.90
34279;DHT22;20538;51.528;9.942;2022-08-03T08:38:03;26.50;99.40
34279;DHT22;20538;51.528;9.942;2022-08-03T08:40:28;26.50;97.80
34279;DHT22;20538;51.528;9.942;2022-08-03T08:42:54;26.60;97.80
34279;DHT22;20538;51.528;9.942;2022-08-03T08:45:20;26.80;96.50
34279;DHT22;20538;51.528;9.942;2022-08-03T08:47:48;26.80;96.10
34279;DHT22;20538;51.528;9.942;2022-08-03T08:50:18;26.80;95.70
34279;DHT22;20538;51.528;9.942;2022-08-03T08:52:49;27.20;95.50
34279;DHT22;20538;51.528;9.942;2022-08-03T08:55:22;27.10;94.10
34279;DHT22;20538;51.528;9.942;2022-08-03T08:57:50;27.40;94.20
34279;DHT22;20538;51.528;9.942;2022-08-03T09:00:17;27.40;93.90
34279;DHT22;20538;51.528;9.942;2022-08-03T09:02:43;27.40;93.80
34279;DHT22;20538;51.528;9.942;2022-08-03T09:05:11;27.40;92.30
34279;DHT22;20538;51.528;9.942;2022-08-03T09:07:38;27.60;91.90
34279;DHT22;20538;51.528;9.942;2022-08-03T09:10:05;27.70;90.90
34279;DHT22;20538;51.528;9.942;2022-08-03T09:12:36;27.70;90.90
34279;DHT22;20538;51.528;9.942;2022-08-03T09:15:34;27.90;90.60
34279;DHT22;20538;51.528;9.942;2022-08-03T09:18:02;27.90;91.40
34279;DHT22;20538;51.528;9.942;2022-08-03T09:20:33;28.10;90.50
34279;DHT22;20538;51.528;9.942;2022-08-03T09:23:06;28.20;88.20
34279;DHT22;20538;51.528;9.942;2022-08-03T09:25:40;28.20;89.10
34279;DHT22;20538;51.528;9.942;2022-08-03T09:28:14;28.30;88.90
34279;DHT22;20538;51.528;9.942;2022-08-03T09:30:45;28.50;88.80
34279;DHT22;20538;51.528;9.942;2022-08-03T09:33:22;28.50;89.00
34279;DHT22;20538;51.528;9.942;2022-08-03T09:35:48;28.60;87.40
34279;DHT22;20538;51.528;9.942;2022-08-03T09:38:16;28.60;88.30
34279;DHT22;20538;51.528;9.942;2022-08-03T09:40:42;28.60;85.40
34279;DHT22;20538;51.528;9.942;2022-08-03T09:43:09;28.70;85.70
34279;DHT22;20538;51.528;9.942;2022-08-03T09:45:36;28.80;85.80
34279;DHT22;20538;51.528;9.942;2022-08-03T09:48:24;28.90;83.80
34279;DHT22;20538;51.528;9.942;2022-08-03T09:50:55;29.00;84.80
34279;DHT22;20538;51.528;9.942;2022-08-03T09:53:22;29.00;85.20
34279;DHT22;20538;51.528;9.942;2022-08-03T09:55:53;29.10;84.30
34279;DHT22;20538;51.528;9.942;2022-08-03T09:58:23;29.20;84.90
34279;DHT22;20538;51.528;9.942;2022-08-03T10:01:02;29.10;83.90
34279;DHT22;20538;51.528;9.942;2022-08-03T10:03:36;28.70;84.60
34279;DHT22;20538;51.528;9.942;2022-08-03T10:06:15;28.90;83.50
34279;DHT22;20538;51.528;9.942;2022-08-03T10:08:44;29.10;83.60
34279;DHT22;20538;51.528;9.942;2022-08-03T10:11:09;29.20;82.50
34279;DHT22;20538;51.528;9.942;2022-08-03T10:13:35;29.30;86.70
34279;DHT22;20538;51.528;9.942;2022-08-03T10:16:02;29.30;82.90
34279;DHT22;20538;51.528;9.942;2022-08-03T10:18:29;29.30;82.10
34279;DHT22;20538;51.528;9.942;2022-08-03T10:21:00;29.40;82.70
34279;DHT22;20538;51.528;9.942;2022-08-03T10:23:28;29.60;83.30
34279;DHT22;20538;51.528;9.942;2022-08-03T10:26:01;29.80;81.10
34279;DHT22;20538;51.528;9.942;2022-08-03T10:28:39;29.70;79.60
34279;DHT22;20538;51.528;9.942;2022-08-03T10:31:07;29.50;80.60
34279;DHT22;20538;51.528;9.942;2022-08-03T10:33:36;29.40;80.80
34279;DHT22;20538;51.528;9.942;2022-08-03T10:36:07;29.50;82.40
34279;DHT22;20538;51.528;9.942;2022-08-03T10:38:43;29.40;79.90
34279;DHT22;20538;51.528;9.942;2022-08-03T10:41:12;29.60;79.70
34279;DHT22;20538;51.528;9.942;2022-08-03T10:44:10;29.60;81.00
34279;DHT22;20538;51.528;9.942;2022-08-03T10:46:38;30.00;78.60
34279;DHT22;20538;51.528;9.942;2022-08-03T10:49:06;30.30;78.40
34279;DHT22;20538;51.528;9.942;2022-08-03T10:51:33;30.30;77.50
34279;DHT22;20538;51.528;9.942;2022-08-03T10:53:59;29.60;75.70
34279;DHT22;20538;51.528;9.942;2022-08-03T10:59:19;29.60;76.80
34279;DHT22;20538;51.528;9.942;2022-08-03T11:02:04;29.60;76.30
34279;DHT22;20538;51.528;9.942;2022-08-03T11:04:33;29.50;76.70
34279;DHT22;20538;51.528;9.942;2022-08-03T11:07:21;29.60;76.60
34279;DHT22;20538;51.528;9.942;2022-08-03T11:09:50;29.90;77.10
34279;DHT22;20538;51.528;9.942;2022-08-03T11:12:35;30.10;78.10
34279;DHT22;20538;51.528;9.942;2022-08-03T11:15:05;30.30;76.70
34279;DHT22;20538;51.528;9.942;2022-08-03T11:17:33;30.40;77.10
34279;DHT22;20538;51.528;9.942;2022-08-03T11:19:59;30.30;76.70
34279;DHT22;20538;51.528;9.942;2022-08-03T11:22:25;30.40;76.30
34279;DHT22;20538;51.528;9.942;2022-08-03T11:25:10;30.40;74.50
34279;DHT22;20538;51.528;9.942;2022-08-03T11:27:39;30.50;75.00
34279;DHT22;20538;51.528;9.942;2022-08-03T11:40:47;29.90;73.80
34279;DHT22;20538;51.528;9.942;2022-08-03T11:48:22;30.70;75.00
34279;DHT22;20538;51.528;9.942;2022-08-03T11:50:49;30.50;73.90
34279;DHT22;20538;51.528;9.942;2022-08-03T11:53:16;30.30;72.40
34279;DHT22;20538;51.528;9.942;2022-08-03T11:55:44;30.40;73.10
34279;DHT22;20538;51.528;9.942;2022-08-03T11:58:20;30.30;72.30
34279;DHT22;20538;51.528;9.942;2022-08-03T12:00:46;30.20;73.50
34279;DHT22;20538;51.528;9.942;2022-08-03T12:03:14;30.50;74.60
34279;DHT22;20538;51.528;9.942;2022-08-03T12:05:52;30.60;72.80
34279;DHT22;20538;51.528;9.942;2022-08-03T12:10:54;30.40;73.10
34279;DHT22;20538;51.528;9.942;2022-08-03T12:13:20;30.70;72.50
34279;DHT22;20538;51.528;9.942;2022-08-03T12:15:54;30.80;72.50
34279;DHT22;20538;51.528;9.942;2022-08-03T12:18:21;31.10;71.60
34279;DHT22;20538;51.528;9.942;2022-08-03T12:20:51;31.40;71.30
34279;DHT22;20538;51.528;9.942;2022-08-03T12:23:18;31.20;70.00
34279;DHT22;20538;51.528;9.942;2022-08-03T12:25:45;31.20;71.00
34279;DHT22;20538;51.528;9.942;2022-08-03T12:28:17;30.70;70.10
34279;DHT22;20538;51.528;9.942;2022-08-03T12:30:51;30.70;71.90
34279;DHT22;20538;51.528;9.942;2022-08-03T12:33:20;30.80;71.80
34279;DHT22;20538;51.528;9.942;2022-08-03T12:35:48;31.00;72.10
34279;DHT22;20538;51.528;9.942;2022-08-03T12:38:19;31.20;72.10
34279;DHT22;20538;51.528;9.942;2022-08-03T12:40:54;31.40;71.40
34279;DHT22;20538;51.528;9.942;2022-08-03T12:43:20;31.60;71.80
34279;DHT22;20538;51.528;9.942;2022-08-03T12:45:46;31.60;71.20
34279;DHT22;20538;51.528;9.942;2022-08-03T12:48:11;31.30;70.60
34279;DHT22;20538;51.528;9.942;2022-08-03T12:50:37;30.90;68.40
34279;DHT22;20538;51.528;9.942;2022-08-03T12:53:06;30.80;69.20
34279;DHT22;20538;51.528;9.942;2022-08-03T12:55:33;30.90;70.20
34279;DHT22;20538;51.528;9.942;2022-08-03T12:58:03;31.30;70.90
34279;DHT22;20538;51.528;9.942;2022-08-03T13:00:29;31.60;70.90
34279;DHT22;20538;51.528;9.942;2022-08-03T13:02:59;31.70;71.50
34279;DHT22;20538;51.528;9.942;2022-08-03T13:05:26;31.50;70.70
34279;DHT22;20538;51.528;9.942;2022-08-03T13:07:52;31.60;70.60
34279;DHT22;20538;51.528;9.942;2022-08-03T13:10:32;31.60;69.40
34279;DHT22;20538;51.528;9.942;2022-08-03T13:12:58;31.60;68.00
34279;DHT22;20538;51.528;9.942;2022-08-03T13:15:29;31.60;68.60
34279;DHT22;20538;51.528;9.942;2022-08-03T13:17:55;31.80;67.60
34279;DHT22;20538;51.528;9.942;2022-08-03T13:20:22;31.70;67.00
34279;DHT22;20538;51.528;9.942;2022-08-03T13:22:48;31.90;67.60
34279;DHT22;20538;51.528;9.942;2022-08-03T13:25:14;31.80;68.10
34279;DHT22;20538;51.528;9.942;2022-08-03T13:27:40;31.60;69.40
34279;DHT22;20538;51.528;9.942;2022-08-03T13:30:07;31.70;69.30
34279;DHT22;20538;51.528;9.942;2022-08-03T13:32:33;32.00;67.50
34279;DHT22;20538;51.528;9.942;2022-08-03T13:34:59;31.50;65.80
34279;DHT22;20538;51.528;9.942;2022-08-03T13:37:27;31.70;66.30
34279;DHT22;20538;51.528;9.942;2022-08-03T13:39:53;32.10;67.60
34279;DHT22;20538;51.528;9.942;2022-08-03T13:42:19;32.30;67.40
34279;DHT22;20538;51.528;9.942;2022-08-03T13:44:44;32.10;66.80
34279;DHT22;20538;51.528;9.942;2022-08-03T13:47:10;32.30;67.50
34279;DHT22;20538;51.528;9.942;2022-08-03T13:49:36;32.40;66.90
34279;DHT22;20538;51.528;9.942;2022-08-03T13:52:02;32.20;66.40
34279;DHT22;20538;51.528;9.942;2022-08-03T13:54:28;32.10;66.00
34279;DHT22;20538;51.528;9.942;2022-08-03T13:56:55;32.00;66.40
34279;DHT22;20538;51.528;9.942;2022-08-03T13:59:22;31.90;66.10
34279;DHT22;20538;51.528;9.942;2022-08-03T14:01:49;32.00;67.30
34279;DHT22;20538;51.528;9.942;2022-08-03T14:04:15;31.90;66.10
34279;DHT22;20538;51.528;9.942;2022-08-03T14:06:41;31.70;67.50
34279;DHT22;20538;51.528;9.942;2022-08-03T14:09:10;32.00;66.70
34279;DHT22;20538;51.528;9.942;2022-08-03T14:11:35;32.30;66.50
34279;DHT22;20538;51.528;9.942;2022-08-03T14:14:01;32.50;66.30
34279;DHT22;20538;51.528;9.942;2022-08-03T14:16:27;32.50;66.50
34279;DHT22;20538;51.528;9.942;2022-08-03T14:18:52;32.40;66.90
34279;DHT22;20538;51.528;9.942;2022-08-03T14:21:18;32.30;66.20
34279;DHT22;20538;51.528;9.942;2022-08-03T14:23:44;32.40;65.80
34279;DHT22;20538;51.528;9.942;2022-08-03T14:26:09;32.10;65.30
34279;DHT22;20538;51.528;9.942;2022-08-03T14:28:36;32.30;67.50
34279;DHT22;20538;51.528;9.942;2022-08-03T14:31:03;32.20;64.60
34279;DHT22;20538;51.528;9.942;2022-08-03T14:33:29;32.40;65.70
34279;DHT22;20538;51.528;9.942;2022-08-03T14:35:54;32.20;64.30
34279;DHT22;20538;51.528;9.942;2022-08-03T14:38:20;32.20;66.20
34279;DHT22;20538;51.528;9.942;2022-08-03T14:40:46;32.20;64.60
34279;DHT22;20538;51.528;9.942;2022-08-03T14:43:13;32.20;63.50
34279;DHT22;20538;51.528;9.942;2022-08-03T14:45:39;32.20;64.80
34279;DHT22;20538;51.528;9.942;2022-08-03T14:48:05;32.30;63.90
34279;DHT22;20538;51.528;9.942;2022-08-03T14:50:31;32.10;62.90
34279;DHT22;20538;51.528;9.942;2022-08-03T14:52:57;32.10;64.00
34279;DHT22;20538;51.528;9.942;2022-08-03T14:55:22;32.10;64.60
34279;DHT22;20538;51.528;9.942;2022-08-03T14:57:48;32.00;63.80
34279;DHT22;20538;51.528;9.942;2022-08-03T15:00:14;32.30;64.50
34279;DHT22;20538;51.528;9.942;2022-08-03T15:02:40;32.40;63.90
34279;DHT22;20538;51.528;9.942;2022-08-03T15:05:06;32.50;63.30
34279;DHT22;20538;51.528;9.942;2022-08-03T15:07:32;32.60;65.40
34279;DHT22;20538;51.528;9.942;2022-08-03T15:09:58;32.70;64.10
34279;DHT22;20538;51.528;9.942;2022-08-03T15:12:24;32.70;62.70
34279;DHT22;20538;51.528;9.942;2022-08-03T15:14:50;32.70;61.70
34279;DHT22;20538;51.528;9.942;2022-08-03T15:17:15;32.60;62.90
34279;DHT22;20538;51.528;9.942;2022-08-03T15:19:41;32.50;61.40
34279;DHT22;20538;51.528;9.942;2022-08-03T15:22:07;32.70;63.90
34279;DHT22;20538;51.528;9.942;2022-08-03T15:24:32;32.80;61.90
34279;DHT22;20538;51.528;9.942;2022-08-03T15:26:58;32.70;61.70
34279;DHT22;20538;51.528;9.942;2022-08-03T15:29:24;32.50;61.00
34279;DHT22;20538;51.528;9.942;2022-08-03T15:31:50;32.70;62.10
34279;DHT22;20538;51.528;9.942;2022-08-03T15:34:19;32.80;62.40
34279;DHT22;20538;51.528;9.942;2022-08-03T15:36:44;32.70;62.50
34279;DHT22;20538;51.528;9.942;2022-08-03T15:39:10;32.50;62.50
34279;DHT22;20538;51.528;9.942;2022-08-03T15:41:36;32.30;61.70
34279;DHT22;20538;51.528;9.942;2022-08-03T15:44:02;32.10;61.90
34279;DHT22;20538;51.528;9.942;2022-08-03T15:46:27;32.10;62.60
34279;DHT22;20538;51.528;9.942;2022-08-03T15:48:53;32.30;62.90
34279;DHT22;20538;51.528;9.942;2022-08-03T15:51:19;32.30;64.30
34279;DHT22;20538;51.528;9.942;2022-08-03T15:53:44;32.10;62.90
34279;DHT22;20538;51.528;9.942;2022-08-03T15:56:10;32.10;61.90
34279;DHT22;20538;51.528;9.942;2022-08-03T15:58:37;32.20;63.50
34279;DHT22;20538;51.528;9.942;2022-08-03T16:01:05;32.30;63.40
34279;DHT22;20538;51.528;9.942;2022-08-03T16:03:30;32.70;62.90
34279;DHT22;20538;51.528;9.942;2022-08-03T16:06:04;33.20;61.90
34279;DHT22;20538;51.528;9.942;2022-08-03T16:08:30;33.40;61.40